sensor_id;sensor_type;location;lat;lon;timestamp;pressure;altitude;pressure_sealevel;temperature;humidity
46714;BME280;32445;51.376;10.874;2023-12-14T00:04:57;98308.13;;;8.48;61.33
46714;BME280;32445;51.376;10.874;2023-12-14T00:09:57;98304.72;;;8.46;61.50
46714;BME280;32445;51.376;10.874;2023-12-14T00:14:58;98312.56;;;8.43;61.50
46714;BME280;32445;51.376;10.874;2023-12-14T00:19:58;98318.63;;;8.42;61.34
46714;BME280;32445;51.376;10.874;2023-12-14T00:24:58;98327.38;;;8.40;61.51
46714;BME280;32445;51.376;10.874;2023-12-14T00:29:59;98334.25;;;8.39;61.21
46714;BME280;32445;51.376;10.874;2023-12-14T00:34:59;98333.47;;;8.37;61.38
46714;BME280;32445;51.376;10.874;2023-12-14T00:40:00;98334.31;;;8.38;61.33
46714;BME280;32445;51.376;10.874;2023-12-14T00:45:00;98346.41;;;8.37;61.47
46714;BME280;32445;51.376;10.874;2023-12-14T00:50:00;98353.38;;;8.35;61.40
46714;BME280;32445;51.376;10.874;2023-12-14T00:55:01;98359.50;;;8.32;61.36
46714;BME280;32445;51.376;10.874;2023-12-14T01:00:01;98360.41;;;8.31;61.34
46714;BME280;32445;51.376;10.874;2023-12-14T01:05:02;98364.75;;;8.31;61.47
46714;BME280;32445;51.376;10.874;2023-12-14T01:10:03;98376.03;;;8.28;61.41
46714;BME280;32445;51.376;10.874;2023-12-14T01:15:04;98389.94;;;8.24;61.44
46714;BME280;32445;51.376;10.874;2023-12-14T01:20:08;98400.41;;;8.21;61.46
46714;BME280;32445;51.376;10.874;2023-12-14T01:25:09;98415.06;;;8.21;61.29
46714;BME280;32445;51.376;10.874;2023-12-14T01:30:10;98416.75;;;8.22;61.29
46714;BME280;32445;51.376;10.874;2023-12-14T01:35:10;98419.34;;;8.22;61.20
46714;BME280;32445;51.376;10.874;2023-12-14T01:40:11;98439.91;;;8.25;61.52
46714;BME280;32445;51.376;10.874;2023-12-14T01:45:11;98445.13;;;8.23;61.36
46714;BME280;32445;51.376;10.874;2023-12-14T01:50:15;98452.06;;;8.23;61.51
46714;BME280;32445;51.376;10.874;2023-12-14T01:55:15;98460.69;;;8.22;61.46
46714;BME280;32445;51.376;10.874;2023-12-14T02:05:32;98475.31;;;8.23;61.51
46714;BME280;32445;51.376;10.874;2023-12-14T02:10:32;98475.31;;;8.23;61.24
46714;BME280;32445;51.376;10.874;2023-12-14T02:15:33;98481.28;;;8.25;61.42
46714;BME280;32445;51.376;10.874;2023-12-14T02:20:33;98485.56;;;8.26;61.27
46714;BME280;32445;51.376;10.874;2023-12-14T02:25:34;98494.19;;;8.25;61.48
46714;BME280;32445;51.376;10.874;2023-12-14T02:30:34;98495.91;;;8.26;61.12
46714;BME280;32445;51.376;10.874;2023-12-14T02:35:34;98505.41;;;8.25;61.21
46714;BME280;32445;51.376;10.874;2023-12-14T02:40:35;98503.81;;;8.21;61.37
46714;BME280;32445;51.376;10.874;2023-12-14T02:45:35;98509.97;;;8.17;61.48
46714;BME280;32445;51.376;10.874;2023-12-14T02:50:35;98512.50;;;8.19;61.56
46714;BME280;32445;51.376;10.874;2023-12-14T02:55:36;98519.44;;;8.17;61.53
46714;BME280;32445;51.376;10.874;2023-12-14T03:00:36;98528.50;;;8.03;61.80
46714;BME280;32445;51.376;10.874;2023-12-14T03:05:36;98539.50;;;8.10;61.80
46714;BME280;32445;51.376;10.874;2023-12-14T03:10:37;98548.84;;;8.14;61.68
46714;BME280;32445;51.376;10.874;2023-12-14T03:15:37;98551.59;;;8.08;61.88
46714;BME280;32445;51.376;10.874;2023-12-14T03:20:38;98554.25;;;8.06;61.85
46714;BME280;32445;51.376;10.874;2023-12-14T03:25:38;98564.56;;;8.06;61.98
46714;BME280;32445;51.376;10.874;2023-12-14T03:30:38;98580.94;;;8.07;61.82
46714;BME280;32445;51.376;10.874;2023-12-14T03:35:39;98578.38;;;8.07;61.65
46714;BME280;32445;51.376;10.874;2023-12-14T03:40:42;98581.00;;;8.05;61.87
46714;BME280;32445;51.376;10.874;2023-12-14T03:45:42;98588.75;;;8.05;61.87
46714;BME280;32445;51.376;10.874;2023-12-14T03:50:42;98592.06;;;8.09;61.65
46714;BME280;32445;51.376;10.874;2023-12-14T03:55:43;98599.78;;;8.10;61.67
46714;BME280;32445;51.376;10.874;2023-12-14T04:00:43;98604.13;;;8.10;61.70
46714;BME280;32445;51.376;10.874;2023-12-14T04:05:43;98619.63;;;8.10;61.56
46714;BME280;32445;51.376;10.874;2023-12-14T04:10:47;98644.59;;;8.09;61.71
46714;BME280;32445;51.376;10.874;2023-12-14T04:15:47;98648.09;;;8.08;61.63
46714;BME280;32445;51.376;10.874;2023-12-14T04:20:48;98660.34;;;8.02;61.62
46714;BME280;32445;51.376;10.874;2023-12-14T04:25:48;98665.56;;;8.00;61.69
46714;BME280;32445;51.376;10.874;2023-12-14T04:30:48;98674.28;;;7.96;61.86
46714;BME280;32445;51.376;10.874;2023-12-14T04:35:49;98688.81;;;8.00;61.46
46714;BME280;32445;51.376;10.874;2023-12-14T04:40:49;98693.13;;;8.01;61.58
46714;BME280;32445;51.376;10.874;2023-12-14T04:45:49;98696.56;;;8.00;61.67
46714;BME280;32445;51.376;10.874;2023-12-14T04:50:50;98697.50;;;7.97;61.53
46714;BME280;32445;51.376;10.874;2023-12-14T04:55:50;98709.69;;;7.94;61.42
46714;BME280;32445;51.376;10.874;2023-12-14T05:00:51;98721.13;;;7.84;61.68
46714;BME280;32445;51.376;10.874;2023-12-14T05:05:51;98729.63;;;7.89;61.71
46714;BME280;32445;51.376;10.874;2023-12-14T05:10:51;98734.78;;;7.89;61.53
46714;BME280;32445;51.376;10.874;2023-12-14T05:15:52;98749.47;;;7.88;61.62
46714;BME280;32445;51.376;10.874;2023-12-14T05:20:52;98751.19;;;7.88;61.38
46714;BME280;32445;51.376;10.874;2023-12-14T05:25:53;98765.88;;;7.86;61.67
46714;BME280;32445;51.376;10.874;2023-12-14T05:30:53;98772.91;;;7.80;61.54
46714;BME280;32445;51.376;10.874;2023-12-14T05:35:53;98776.41;;;7.79;61.55
46714;BME280;32445;51.376;10.874;2023-12-14T05:40:54;98782.41;;;7.80;61.53
46714;BME280;32445;51.376;10.874;2023-12-14T05:45:57;98797.06;;;7.79;61.49
46714;BME280;32445;51.376;10.874;2023-12-14T05:50:57;98800.53;;;7.78;61.62
46714;BME280;32445;51.376;10.874;2023-12-14T05:55:58;98812.63;;;7.76;61.43
46714;BME280;32445;51.376;10.874;2023-12-14T06:00:59;98820.56;;;7.69;61.52
46714;BME280;32445;51.376;10.874;2023-12-14T06:05:59;98827.44;;;7.70;61.68
46714;BME280;32445;51.376;10.874;2023-12-14T06:11:00;98842.03;;;7.71;61.43
46714;BME280;32445;51.376;10.874;2023-12-14T06:16:00;98860.22;;;7.68;61.29
46714;BME280;32445;51.376;10.874;2023-12-14T06:21:03;98869.88;;;7.61;61.75
46714;BME280;32445;51.376;10.874;2023-12-14T06:26:04;98870.84;;;7.55;61.95
46714;BME280;32445;51.376;10.874;2023-12-14T06:31:04;98879.44;;;7.56;61.77
46714;BME280;32445;51.376;10.874;2023-12-14T06:36:06;98876.75;;;7.60;61.67
46714;BME280;32445;51.376;10.874;2023-12-14T06:41:07;98887.97;;;7.59;61.82
46714;BME280;32445;51.376;10.874;2023-12-14T06:46:16;98905.19;;;7.59;61.77
46714;BME280;32445;51.376;10.874;2023-12-14T06:51:16;98912.94;;;7.59;61.66
46714;BME280;32445;51.376;10.874;2023-12-14T06:56:17;98922.59;;;7.52;61.62
46714;BME280;32445;51.376;10.874;2023-12-14T07:01:17;98913.94;;;7.53;61.66
46714;BME280;32445;51.376;10.874;2023-12-14T07:06:18;98930.25;;;7.55;61.44
46714;BME280;32445;51.376;10.874;2023-12-14T07:11:18;98939.75;;;7.53;61.53
46714;BME280;32445;51.376;10.874;2023-12-14T07:16:18;98950.97;;;7.54;61.51
46714;BME280;32445;51.376;10.874;2023-12-14T07:21:19;98956.16;;;7.52;61.43
46714;BME280;32445;51.376;10.874;2023-12-14T07:26:19;98957.03;;;7.51;61.53
46714;BME280;32445;51.376;10.874;2023-12-14T07:31:20;98969.97;;;7.50;61.43
46714;BME280;32445;51.376;10.874;2023-12-14T07:36:20;98982.00;;;7.51;61.41
46714;BME280;32445;51.376;10.874;2023-12-14T07:41:22;98990.69;;;7.48;61.60
46714;BME280;32445;51.376;10.874;2023-12-14T07:46:29;98993.25;;;7.48;61.44
46714;BME280;32445;51.376;10.874;2023-12-14T07:51:30;99001.03;;;7.47;61.27
46714;BME280;32445;51.376;10.874;2023-12-14T07:56:30;99013.06;;;7.48;61.55
46714;BME280;32445;51.376;10.874;2023-12-14T08:01:33;99017.41;;;7.45;61.60
46714;BME280;32445;51.376;10.874;2023-12-14T08:06:34;99016.56;;;7.43;61.54
46714;BME280;32445;51.376;10.874;2023-12-14T08:11:34;99032.34;;;7.31;61.88
46714;BME280;32445;51.376;10.874;2023-12-14T08:16:35;99040.91;;;7.33;62.02
46714;BME280;32445;51.376;10.874;2023-12-14T08:21:35;99047.81;;;7.33;61.83
46714;BME280;32445;51.376;10.874;2023-12-14T08:26:35;99060.81;;;7.28;61.89
46714;BME280;32445;51.376;10.874;2023-12-14T08:31:36;99071.03;;;7.33;61.92
46714;BME280;32445;51.376;10.874;2023-12-14T08:36:36;99083.94;;;7.33;61.79
46714;BME280;32445;51.376;10.874;2023-12-14T08:41:37;99097.03;;;7.25;61.99
46714;BME280;32445;51.376;10.874;2023-12-14T08:46:45;99106.53;;;7.21;61.96
46714;BME280;32445;51.376;10.874;2023-12-14T08:51:46;99122.88;;;7.22;61.90
46714;BME280;32445;51.376;10.874;2023-12-14T08:56:46;99134.09;;;7.21;61.95
46714;BME280;32445;51.376;10.874;2023-12-14T09:01:47;99137.72;;;7.09;62.22
46714;BME280;32445;51.376;10.874;2023-12-14T09:06:48;99151.97;;;6.80;62.82
46714;BME280;32445;51.376;10.874;2023-12-14T09:11:48;99164.16;;;6.72;63.01
46714;BME280;32445;51.376;10.874;2023-12-14T09:16:49;99171.13;;;6.67;63.13
46714;BME280;32445;51.376;10.874;2023-12-14T09:21:49;99183.03;;;6.75;63.28
46714;BME280;32445;51.376;10.874;2023-12-14T09:26:50;99185.66;;;6.72;62.87
46714;BME280;32445;51.376;10.874;2023-12-14T09:31:50;99202.41;;;6.44;63.45
46714;BME280;32445;51.376;10.874;2023-12-14T09:36:50;99200.78;;;6.36;63.83
46714;BME280;32445;51.376;10.874;2023-12-14T09:41:51;99208.56;;;6.33;63.62
46714;BME280;32445;51.376;10.874;2023-12-14T09:46:52;99213.78;;;6.29;63.84
46714;BME280;32445;51.376;10.874;2023-12-14T09:51:52;99220.91;;;6.10;64.30
46714;BME280;32445;51.376;10.874;2023-12-14T09:56:53;99229.66;;;5.93;64.59
46714;BME280;32445;51.376;10.874;2023-12-14T10:02:08;99238.41;;;5.78;65.23
46714;BME280;32445;51.376;10.874;2023-12-14T10:07:09;99247.00;;;5.76;65.26
46714;BME280;32445;51.376;10.874;2023-12-14T10:12:09;99247.81;;;5.82;64.91
46714;BME280;32445;51.376;10.874;2023-12-14T10:17:21;99252.94;;;5.82;65.05
46714;BME280;32445;51.376;10.874;2023-12-14T10:22:21;99257.28;;;5.80;64.88
46714;BME280;32445;51.376;10.874;2023-12-14T10:27:22;99258.97;;;5.81;64.72
46714;BME280;32445;51.376;10.874;2023-12-14T10:32:23;99275.34;;;5.76;64.79
46714;BME280;32445;51.376;10.874;2023-12-14T10:37:25;99284.69;;;5.84;64.37
46714;BME280;32445;51.376;10.874;2023-12-14T10:42:26;99288.13;;;5.86;64.39
46714;BME280;32445;51.376;10.874;2023-12-14T10:47:28;99302.72;;;5.84;64.25
46714;BME280;32445;51.376;10.874;2023-12-14T10:52:29;99307.16;;;5.70;64.78
46714;BME280;32445;51.376;10.874;2023-12-14T10:57:30;99304.72;;;5.58;65.09
46714;BME280;32445;51.376;10.874;2023-12-14T11:02:39;99321.97;;;5.46;65.36
46714;BME280;32445;51.376;10.874;2023-12-14T11:07:44;99331.50;;;5.33;65.66
46714;BME280;32445;51.376;10.874;2023-12-14T11:13:01;99346.94;;;5.33;65.76
46714;BME280;32445;51.376;10.874;2023-12-14T11:23:08;99350.31;;;5.43;65.65
46714;BME280;32445;51.376;10.874;2023-12-14T11:28:10;99348.59;;;5.42;65.73
46714;BME280;32445;51.376;10.874;2023-12-14T11:33:12;99355.38;;;5.52;65.38
46714;BME280;32445;51.376;10.874;2023-12-14T11:38:12;99357.13;;;5.50;65.45
46714;BME280;32445;51.376;10.874;2023-12-14T11:43:13;99360.50;;;5.54;65.13
46714;BME280;32445;51.376;10.874;2023-12-14T11:48:15;99363.19;;;5.43;65.28
46714;BME280;32445;51.376;10.874;2023-12-14T11:53:16;99372.59;;;5.44;65.33
46714;BME280;32445;51.376;10.874;2023-12-14T11:58:17;99371.00;;;5.28;65.59
46714;BME280;32445;51.376;10.874;2023-12-14T12:03:18;99370.91;;;5.40;65.50
46714;BME280;32445;51.376;10.874;2023-12-14T12:08:20;99365.72;;;5.48;64.97
46714;BME280;32445;51.376;10.874;2023-12-14T12:13:21;99374.38;;;5.39;65.21
46714;BME280;32445;51.376;10.874;2023-12-14T12:18:21;99392.44;;;5.28;65.67
46714;BME280;32445;51.376;10.874;2023-12-14T12:23:21;99386.41;;;5.32;65.47
46714;BME280;32445;51.376;10.874;2023-12-14T12:28:22;99399.31;;;5.28;65.48
46714;BME280;32445;51.376;10.874;2023-12-14T12:33:22;99409.63;;;5.25;65.62
46714;BME280;32445;51.376;10.874;2023-12-14T12:38:23;99406.06;;;5.46;64.98
46714;BME280;32445;51.376;10.874;2023-12-14T12:43:23;99423.28;;;5.37;65.14
46714;BME280;32445;51.376;10.874;2023-12-14T12:48:23;99425.91;;;5.27;65.36
46714;BME280;32445;51.376;10.874;2023-12-14T12:53:27;99430.25;;;5.18;65.34
46714;BME280;32445;51.376;10.874;2023-12-14T12:58:27;99428.56;;;5.13;65.41
46714;BME280;32445;51.376;10.874;2023-12-14T13:03:28;99436.25;;;5.19;65.25
46714;BME280;32445;51.376;10.874;2023-12-14T13:08:29;99452.53;;;5.19;65.10
46714;BME280;32445;51.376;10.874;2023-12-14T13:13:29;99450.84;;;5.22;65.08
46714;BME280;32445;51.376;10.874;2023-12-14T13:18:31;99467.16;;;5.17;64.97
46714;BME280;32445;51.376;10.874;2023-12-14T13:23:32;99468.03;;;5.12;65.03
46714;BME280;32445;51.376;10.874;2023-12-14T13:28:34;99471.50;;;5.05;65.04
46714;BME280;32445;51.376;10.874;2023-12-14T13:33:34;99480.91;;;5.06;65.08
46714;BME280;32445;51.376;10.874;2023-12-14T13:38:35;99490.34;;;5.05;64.90
46714;BME280;32445;51.376;10.874;2023-12-14T13:43:36;99489.50;;;5.03;65.12
46714;BME280;32445;51.376;10.874;2023-12-14T13:48:36;99499.81;;;5.03;64.96
46714;BME280;32445;51.376;10.874;2023-12-14T13:53:37;99510.94;;;5.02;65.02
46714;BME280;32445;51.376;10.874;2023-12-14T13:58:37;99512.66;;;5.03;65.06
46714;BME280;32445;51.376;10.874;2023-12-14T14:03:40;99530.66;;;4.97;64.90
46714;BME280;32445;51.376;10.874;2023-12-14T14:08:41;99536.72;;;4.94;64.97
46714;BME280;32445;51.376;10.874;2023-12-14T14:13:41;99541.00;;;4.86;65.34
46714;BME280;32445;51.376;10.874;2023-12-14T14:18:42;99555.56;;;4.85;65.13
46714;BME280;32445;51.376;10.874;2023-12-14T14:23:42;99567.59;;;4.76;65.32
46714;BME280;32445;51.376;10.874;2023-12-14T14:28:43;99589.03;;;4.75;65.42
46714;BME280;32445;51.376;10.874;2023-12-14T14:33:43;99596.75;;;4.76;65.36
46714;BME280;32445;51.376;10.874;2023-12-14T14:38:44;99598.44;;;4.74;65.46
46714;BME280;32445;51.376;10.874;2023-12-14T14:43:45;99607.03;;;4.79;65.04
46714;BME280;32445;51.376;10.874;2023-12-14T14:48:45;99615.59;;;4.84;65.04
46714;BME280;32445;51.376;10.874;2023-12-14T14:53:45;99618.19;;;4.84;64.89
46714;BME280;32445;51.376;10.874;2023-12-14T14:58:47;99633.59;;;4.80;65.07
46714;BME280;32445;51.376;10.874;2023-12-14T15:03:47;99643.88;;;4.69;65.17
46714;BME280;32445;51.376;10.874;2023-12-14T15:08:48;99653.34;;;4.68;65.33
46714;BME280;32445;51.376;10.874;2023-12-14T15:13:48;99658.44;;;4.65;64.96
46714;BME280;32445;51.376;10.874;2023-12-14T15:18:48;99668.72;;;4.65;65.26
46714;BME280;32445;51.376;10.874;2023-12-14T15:23:49;99685.88;;;4.60;65.08
46714;BME280;32445;51.376;10.874;2023-12-14T15:28:49;99697.88;;;4.60;65.50
46714;BME280;32445;51.376;10.874;2023-12-14T15:33:54;99710.75;;;4.63;65.26
46714;BME280;32445;51.376;10.874;2023-12-14T15:38:55;99721.00;;;4.52;65.25
46714;BME280;32445;51.376;10.874;2023-12-14T15:43:56;99725.28;;;4.52;65.25
46714;BME280;32445;51.376;10.874;2023-12-14T15:48:56;99732.13;;;4.53;65.20
46714;BME280;32445;51.376;10.874;2023-12-14T15:53:56;99740.72;;;4.59;65.17
46714;BME280;32445;51.376;10.874;2023-12-14T15:58:59;99760.44;;;4.59;64.99
46714;BME280;32445;51.376;10.874;2023-12-14T16:04:00;99754.41;;;4.43;65.47
46714;BME280;32445;51.376;10.874;2023-12-14T16:09:00;99768.13;;;4.51;65.41
46714;BME280;32445;51.376;10.874;2023-12-14T16:14:02;99777.56;;;4.54;65.33
46714;BME280;32445;51.376;10.874;2023-12-14T16:19:03;99777.56;;;4.52;65.11
46714;BME280;32445;51.376;10.874;2023-12-14T16:24:04;99790.41;;;4.60;65.04
46714;BME280;32445;51.376;10.874;2023-12-14T16:29:05;99800.72;;;4.58;65.05
46714;BME280;32445;51.376;10.874;2023-12-14T16:34:05;99804.16;;;4.57;64.85
46714;BME280;32445;51.376;10.874;2023-12-14T16:39:06;99816.97;;;4.53;65.16
46714;BME280;32445;51.376;10.874;2023-12-14T16:44:09;99825.56;;;4.56;64.96
46714;BME280;32445;51.376;10.874;2023-12-14T16:49:09;99831.59;;;4.64;64.60
46714;BME280;32445;51.376;10.874;2023-12-14T16:54:10;99841.84;;;4.58;64.87
46714;BME280;32445;51.376;10.874;2023-12-14T16:59:10;99838.41;;;4.53;65.25
46714;BME280;32445;51.376;10.874;2023-12-14T17:04:11;99845.28;;;4.59;64.91
46714;BME280;32445;51.376;10.874;2023-12-14T17:09:11;99855.56;;;4.59;64.91
46714;BME280;32445;51.376;10.874;2023-12-14T17:14:12;99866.72;;;4.62;64.59
46714;BME280;32445;51.376;10.874;2023-12-14T17:19:13;99870.19;;;4.66;64.52
46714;BME280;32445;51.376;10.874;2023-12-14T17:24:13;99877.00;;;4.65;64.67
46714;BME280;32445;51.376;10.874;2023-12-14T17:29:14;99883.91;;;4.74;64.71
46714;BME280;32445;51.376;10.874;2023-12-14T17:34:15;99889.91;;;4.75;64.41
46714;BME280;32445;51.376;10.874;2023-12-14T17:39:15;99907.09;;;4.77;64.16
46714;BME280;32445;51.376;10.874;2023-12-14T17:44:15;99902.72;;;4.65;64.36
46714;BME280;32445;51.376;10.874;2023-12-14T17:49:16;99900.13;;;4.56;64.63
46714;BME280;32445;51.376;10.874;2023-12-14T17:54:16;99915.53;;;4.53;65.11
46714;BME280;32445;51.376;10.874;2023-12-14T17:59:17;99909.53;;;4.53;64.71
46714;BME280;32445;51.376;10.874;2023-12-14T18:04:17;99919.78;;;4.45;65.25
46714;BME280;32445;51.376;10.874;2023-12-14T18:09:18;99921.50;;;4.46;65.42
46714;BME280;32445;51.376;10.874;2023-12-14T18:14:18;99925.78;;;4.47;65.23
46714;BME280;32445;51.376;10.874;2023-12-14T18:19:18;99933.44;;;4.33;65.83
46714;BME280;32445;51.376;10.874;2023-12-14T18:24:19;99949.72;;;4.40;65.58
46714;BME280;32445;51.376;10.874;2023-12-14T18:29:21;99953.97;;;4.31;65.72
46714;BME280;32445;51.376;10.874;2023-12-14T18:34:21;99957.38;;;4.30;66.04
46714;BME280;32445;51.376;10.874;2023-12-14T18:39:22;99972.78;;;4.26;66.18
46714;BME280;32445;51.376;10.874;2023-12-14T18:44:22;99978.78;;;4.26;65.98
46714;BME280;32445;51.376;10.874;2023-12-14T18:49:23;99988.19;;;4.26;66.23
46714;BME280;32445;51.376;10.874;2023-12-14T18:54:23;99990.78;;;4.26;66.11
46714;BME280;32445;51.376;10.874;2023-12-14T18:59:24;100000.28;;;4.38;65.81
46714;BME280;32445;51.376;10.874;2023-12-14T19:04:24;100011.41;;;4.41;65.44
46714;BME280;32445;51.376;10.874;2023-12-14T19:09:25;100027.75;;;4.46;65.41
46714;BME280;32445;51.376;10.874;2023-12-14T19:14:25;100036.25;;;4.39;65.67
46714;BME280;32445;51.376;10.874;2023-12-14T19:19:25;100042.25;;;4.40;65.46
46714;BME280;32445;51.376;10.874;2023-12-14T19:24:26;100050.81;;;4.36;65.59
46714;BME280;32445;51.376;10.874;2023-12-14T19:29:27;100054.22;;;4.31;65.91
46714;BME280;32445;51.376;10.874;2023-12-14T19:34:27;100059.38;;;4.35;65.98
46714;BME280;32445;51.376;10.874;2023-12-14T19:39:27;100079.94;;;4.38;65.81
46714;BME280;32445;51.376;10.874;2023-12-14T19:44:28;100091.16;;;4.44;65.41
46714;BME280;32445;51.376;10.874;2023-12-14T19:49:28;100105.72;;;4.47;65.06
46714;BME280;32445;51.376;10.874;2023-12-14T19:54:29;100110.00;;;4.46;65.40
46714;BME280;32445;51.376;10.874;2023-12-14T19:59:29;100116.81;;;4.41;65.57
46714;BME280;32445;51.376;10.874;2023-12-14T20:04:30;100119.34;;;4.38;65.41
46714;BME280;32445;51.376;10.874;2023-12-14T20:09:30;100120.25;;;4.42;65.37
46714;BME280;32445;51.376;10.874;2023-12-14T20:14:30;100140.88;;;4.46;65.14
46714;BME280;32445;51.376;10.874;2023-12-14T20:19:31;100145.22;;;4.54;64.78
46714;BME280;32445;51.376;10.874;2023-12-14T20:24:31;100152.06;;;4.50;64.94
46714;BME280;32445;51.376;10.874;2023-12-14T20:29:32;100152.78;;;4.40;64.95
46714;BME280;32445;51.376;10.874;2023-12-14T20:34:32;100158.84;;;4.43;64.75
46714;BME280;32445;51.376;10.874;2023-12-14T20:39:33;100168.28;;;4.43;64.70
46714;BME280;32445;51.376;10.874;2023-12-14T20:44:33;100181.97;;;4.43;64.54
46714;BME280;32445;51.376;10.874;2023-12-14T20:49:33;100177.63;;;4.39;64.58
46714;BME280;32445;51.376;10.874;2023-12-14T20:54:34;100196.47;;;4.40;64.13
46714;BME280;32445;51.376;10.874;2023-12-14T20:59:34;100198.31;;;4.48;63.90
46714;BME280;32445;51.376;10.874;2023-12-14T21:04:34;100196.59;;;4.50;63.57
46714;BME280;32445;51.376;10.874;2023-12-14T21:09:35;100201.72;;;4.47;63.38
46714;BME280;32445;51.376;10.874;2023-12-14T21:14:35;100207.69;;;4.43;63.03
46714;BME280;32445;51.376;10.874;2023-12-14T21:19:45;100212.78;;;4.39;63.00
46714;BME280;32445;51.376;10.874;2023-12-14T21:24:46;100217.81;;;4.31;63.24
46714;BME280;32445;51.376;10.874;2023-12-14T21:29:49;100214.38;;;4.27;63.11
46714;BME280;32445;51.376;10.874;2023-12-14T21:34:49;100216.03;;;4.24;62.99
46714;BME280;32445;51.376;10.874;2023-12-14T21:39:49;100215.97;;;4.18;62.99
46714;BME280;32445;51.376;10.874;2023-12-14T21:44:50;100240.72;;;4.12;62.82
46714;BME280;32445;51.376;10.874;2023-12-14T21:49:50;100242.41;;;4.07;62.82
46714;BME280;32445;51.376;10.874;2023-12-14T21:54:51;100261.19;;;4.03;62.71
46714;BME280;32445;51.376;10.874;2023-12-14T21:59:51;100255.13;;;3.98;62.75
46714;BME280;32445;51.376;10.874;2023-12-14T22:04:52;100260.19;;;3.93;62.80
46714;BME280;32445;51.376;10.874;2023-12-14T22:09:52;100264.47;;;3.90;62.78
46714;BME280;32445;51.376;10.874;2023-12-14T22:14:53;100266.09;;;3.86;62.68
46714;BME280;32445;51.376;10.874;2023-12-14T22:19:58;100278.09;;;3.86;62.66
46714;BME280;32445;51.376;10.874;2023-12-14T22:24:59;100290.94;;;3.86;62.64
46714;BME280;32445;51.376;10.874;2023-12-14T22:29:59;100285.78;;;3.84;62.33
46714;BME280;32445;51.376;10.874;2023-12-14T22:35:00;100299.47;;;3.85;62.44
46714;BME280;32445;51.376;10.874;2023-12-14T22:40:02;100322.59;;;3.86;62.58
46714;BME280;32445;51.376;10.874;2023-12-14T22:45:03;100319.16;;;3.84;62.15
46714;BME280;32445;51.376;10.874;2023-12-14T22:50:04;100326.03;;;3.87;62.33
46714;BME280;32445;51.376;10.874;2023-12-14T22:55:05;100329.47;;;3.86;62.35
46714;BME280;32445;51.376;10.874;2023-12-14T23:00:10;100332.88;;;3.86;62.10
46714;BME280;32445;51.376;10.874;2023-12-14T23:05:16;100336.31;;;3.87;62.20
46714;BME280;32445;51.376;10.874;2023-12-14T23:10:16;100349.13;;;3.85;62.47
46714;BME280;32445;51.376;10.874;2023-12-14T23:15:17;100347.41;;;3.84;62.25
46714;BME280;32445;51.376;10.874;2023-12-14T23:20:17;100355.13;;;3.84;62.42
46714;BME280;32445;51.376;10.874;2023-12-14T23:25:18;100361.94;;;3.84;62.32
46714;BME280;32445;51.376;10.874;2023-12-14T23:30:18;100379.09;;;3.85;62.29
46714;BME280;32445;51.376;10.874;2023-12-14T23:35:19;100386.78;;;3.85;62.18
46714;BME280;32445;51.376;10.874;2023-12-14T23:40:19;100395.34;;;3.85;62.24
46714;BME280;32445;51.376;10.874;2023-12-14T23:45:19;100393.66;;;3.86;62.22
46714;BME280;32445;51.376;10.874;2023-12-14T23:50:20;100402.22;;;3.85;62.11
46714;BME280;32445;51.376;10.874;2023-12-14T23:55:20;100411.63;;;3.84;62.15
